createdAt,value
2022-10-04T00:05:05.190Z,9.76
2022-10-04T00:15:18.334Z,9.79
2022-10-04T00:25:22.701Z,9.60
2022-10-04T00:35:45.976Z,9.55
2022-10-04T00:45:52.999Z,9.43
2022-10-04T00:55:57.520Z,9.45
2022-10-04T01:06:03.161Z,9.32
2022-10-04T01:16:11.424Z,8.92
2022-10-04T01:26:32.562Z,8.81
2022-10-04T01:36:36.914Z,8.80
2022-10-04T01:46:40.886Z,8.86
2022-10-04T01:56:46.859Z,8.82
2022-10-04T02:06:54.078Z,8.72
2022-10-04T02:16:58.350Z,8.49
2022-10-04T02:27:00.830Z,8.58
2022-10-04T02:37:05.270Z,8.34
2022-10-04T02:47:10.467Z,8.21
2022-10-04T02:57:17.179Z,8.32
2022-10-04T03:07:20.115Z,8.32
2022-10-04T03:17:23.924Z,8.07
2022-10-04T03:27:29.500Z,8.16
2022-10-04T03:37:36.179Z,7.99
2022-10-04T03:47:40.373Z,7.91
2022-10-04T03:57:44.149Z,7.58
2022-10-04T04:07:47.764Z,7.46
2022-10-04T04:17:53.396Z,7.06
2022-10-04T04:28:01.259Z,7.21
2022-10-04T04:38:06.535Z,7.38
2022-10-04T04:48:09.202Z,7.52
2022-10-04T04:58:21.340Z,7.53
2022-10-04T05:08:25.421Z,7.07
2022-10-04T05:18:31.431Z,7.11
2022-10-04T05:28:34.083Z,7.22
2022-10-04T05:38:41.974Z,7.31
2022-10-04T05:48:46.972Z,7.35
2022-10-04T05:58:56.278Z,7.52
2022-10-04T06:09:07.051Z,7.71
2022-10-04T06:19:19.868Z,7.71
2022-10-04T06:29:25.566Z,7.43
2022-10-04T06:39:44.985Z,7.19
2022-10-04T06:49:53.900Z,7.90
2022-10-04T07:00:04.318Z,7.73
2022-10-04T07:10:25.374Z,7.71
2022-10-04T07:20:31.135Z,7.65
2022-10-04T07:30:37.025Z,8.13
2022-10-04T07:40:42.279Z,8.44
2022-10-04T07:50:49.103Z,8.73
2022-10-04T08:00:55.734Z,8.86
2022-10-04T08:11:08.464Z,9.08
2022-10-04T08:21:17.831Z,9.40
2022-10-04T08:31:26.522Z,9.38
2022-10-04T08:41:45.993Z,9.40
2022-10-04T08:52:06.151Z,9.47
2022-10-04T09:02:24.156Z,9.67
2022-10-04T09:12:44.164Z,9.82
2022-10-04T09:22:49.993Z,10.41
2022-10-04T09:33:02.339Z,10.92
2022-10-04T09:43:30.231Z,11.47
2022-10-04T09:53:40.255Z,11.84
2022-10-04T10:04:15.857Z,12.23
2022-10-04T10:14:31.324Z,12.60
2022-10-04T10:24:43.332Z,13.07
2022-10-04T10:34:54.075Z,13.74
2022-10-04T10:45:16.484Z,14.35
2022-10-04T10:55:27.895Z,14.79
2022-10-04T11:05:50.984Z,15.65
2022-10-04T11:16:14.839Z,16.25
2022-10-04T11:26:31.667Z,17.27
2022-10-04T11:36:40.098Z,17.34
2022-10-04T11:46:48.117Z,17.79
2022-10-04T11:57:02.817Z,18.36
2022-10-04T12:07:26.503Z,19.16
2022-10-04T12:17:46.284Z,19.97
2022-10-04T12:28:11.603Z,20.53
2022-10-04T12:38:29.115Z,20.97
2022-10-04T12:48:41.800Z,21.47
2022-10-04T12:58:54.560Z,21.59
2022-10-04T13:09:03.823Z,22.28
2022-10-04T13:19:14.737Z,22.58
2022-10-04T13:29:23.365Z,22.21
2022-10-04T13:39:31.350Z,22.44
2022-10-04T13:49:44.804Z,21.80
2022-10-04T13:59:51.779Z,21.22
2022-10-04T14:10:02.070Z,20.71
2022-10-04T14:20:23.998Z,20.07
2022-10-04T14:30:33.075Z,19.74
2022-10-04T14:40:45.588Z,19.40
2022-10-04T14:50:58.109Z,19.20
2022-10-04T15:01:07.202Z,19.09
2022-10-04T15:11:13.657Z,18.71
2022-10-04T15:21:32.452Z,18.74
2022-10-04T15:31:38.908Z,18.58
2022-10-04T15:41:46.908Z,18.43
2022-10-04T15:52:04.231Z,18.32
2022-10-04T16:02:22.269Z,18.03
2022-10-04T16:12:29.158Z,17.72
2022-10-04T16:22:33.930Z,17.66
2022-10-04T16:32:41.611Z,17.33
2022-10-04T16:42:52.401Z,17.13
2022-10-04T16:53:00.712Z,16.80
2022-10-04T17:03:15.621Z,16.73
2022-10-04T17:13:23.255Z,16.37
2022-10-04T17:23:41.883Z,16.21
2022-10-04T17:33:53.592Z,15.96
2022-10-04T17:44:14.549Z,15.94
2022-10-04T17:54:37.449Z,15.81
2022-10-04T18:04:48.998Z,15.67
2022-10-04T18:15:00.167Z,15.66
2022-10-04T18:25:16.564Z,15.49
2022-10-04T18:35:25.701Z,15.40
2022-10-04T18:45:30.916Z,15.29
2022-10-04T18:55:37.493Z,15.19
2022-10-04T19:05:51.266Z,15.01
2022-10-04T19:15:59.407Z,14.82
2022-10-04T19:36:39.193Z,14.57
2022-10-04T19:46:44.870Z,14.68
2022-10-04T19:56:48.846Z,14.41
2022-10-04T20:06:54.575Z,14.36
2022-10-04T20:17:04.025Z,14.23
2022-10-04T20:27:09.144Z,13.97
2022-10-04T20:37:14.294Z,14.30
2022-10-04T20:47:21.526Z,14.33
2022-10-04T20:57:24.166Z,14.13
2022-10-04T21:07:28.015Z,13.83
2022-10-04T21:17:38.285Z,14.07
2022-10-04T21:27:43.376Z,14.09
2022-10-04T21:37:45.925Z,14.03
2022-10-04T21:47:49.650Z,13.97
2022-10-04T21:57:52.030Z,13.55
2022-10-04T22:07:55.796Z,13.44
2022-10-04T22:17:58.356Z,13.30
2022-10-04T22:28:02.330Z,13.10
2022-10-04T22:38:06.481Z,12.98
2022-10-04T22:48:12.885Z,12.74
2022-10-04T22:58:15.806Z,12.29
2022-10-04T23:08:19.620Z,12.30
2022-10-04T23:18:22.127Z,12.12
2022-10-04T23:28:25.958Z,12.19
2022-10-04T23:38:30.344Z,12.07
2022-10-04T23:48:34.200Z,12.30
2022-10-04T23:58:38.470Z,12.24
